createdAt,value
2017-02-13T00:00:20.451Z,0
2017-02-13T00:01:20.497Z,0
2017-02-13T00:02:20.583Z,0
2017-02-13T00:03:20.638Z,0
2017-02-13T00:04:20.688Z,0
2017-02-13T00:05:20.723Z,0
2017-02-13T00:06:20.751Z,0
2017-02-13T00:07:20.815Z,0
2017-02-13T00:08:20.904Z,0
2017-02-13T00:09:20.940Z,0
2017-02-13T00:10:21.014Z,0
2017-02-13T00:11:21.078Z,0
2017-02-13T00:12:21.090Z,0
2017-02-13T00:13:21.141Z,0
2017-02-13T00:14:21.193Z,0
2017-02-13T00:15:21.282Z,0
2017-02-13T00:16:21.306Z,0
2017-02-13T00:17:21.391Z,0
2017-02-13T00:18:21.451Z,0
2017-02-13T00:19:21.513Z,0
2017-02-13T00:20:21.536Z,0
2017-02-13T00:21:21.213Z,0
2017-02-13T00:22:21.648Z,0
2017-02-13T00:23:21.685Z,0
2017-02-13T00:24:21.770Z,0
2017-02-13T00:25:21.810Z,0
2017-02-13T00:26:21.893Z,0
2017-02-13T00:27:21.948Z,0
2017-02-13T00:28:22.005Z,0
2017-02-13T00:29:22.036Z,0
2017-02-13T00:30:22.067Z,0
2017-02-13T00:31:22.166Z,0
2017-02-13T00:32:22.255Z,0
2017-02-13T00:33:22.270Z,0
2017-02-13T00:34:22.321Z,0
2017-02-13T00:35:22.361Z,0
2017-02-13T00:36:22.431Z,0
2017-02-13T00:37:22.502Z,0
2017-02-13T00:38:22.569Z,0
2017-02-13T00:39:22.585Z,0
2017-02-13T00:40:22.624Z,0
2017-02-13T00:41:22.304Z,0
2017-02-13T00:42:22.745Z,0
2017-02-13T00:43:22.816Z,0
2017-02-13T00:44:22.848Z,0
2017-02-13T00:45:22.938Z,0
2017-02-13T00:46:22.953Z,0
2017-02-13T00:47:23.039Z,0
2017-02-13T00:48:23.076Z,0
2017-02-13T00:49:23.132Z,0
2017-02-13T00:50:23.205Z,0
2017-02-13T00:51:23.276Z,0
2017-02-13T00:52:23.307Z,0
2017-02-13T00:53:23.353Z,0
2017-02-13T00:54:23.032Z,0
2017-02-13T00:55:23.472Z,0
2017-02-13T00:56:23.149Z,0
2017-02-13T00:57:23.201Z,0
2017-02-13T00:58:23.615Z,0
2017-02-13T00:59:23.707Z,0
2017-02-13T01:00:23.736Z,0
2017-02-13T01:01:23.816Z,0
2017-02-13T01:02:23.483Z,0
2017-02-13T01:03:23.512Z,0
2017-02-13T01:04:23.573Z,0
2017-02-13T01:05:24.030Z,0
2017-02-13T01:06:24.090Z,0
2017-02-13T01:07:24.105Z,0
2017-02-13T01:08:24.183Z,0
2017-02-13T01:09:23.852Z,0
2017-02-13T01:10:24.292Z,0
2017-02-13T01:11:24.348Z,0
2017-02-13T01:12:24.401Z,0
2017-02-13T01:13:24.073Z,0
2017-02-13T01:14:24.501Z,0
2017-02-13T01:15:24.587Z,0
2017-02-13T01:16:24.659Z,0
2017-02-13T01:17:24.692Z,0
2017-02-13T01:18:24.738Z,0
2017-02-13T01:19:24.389Z,0
2017-02-13T01:20:24.870Z,0
2017-02-13T01:21:24.895Z,0
2017-02-13T01:22:24.984Z,0
2017-02-13T01:23:24.997Z,0
2017-02-13T01:24:25.081Z,0
2017-02-13T01:25:25.134Z,0
2017-02-13T01:26:25.181Z,0
2017-02-13T01:27:25.222Z,0
2017-02-13T01:28:25.281Z,0
2017-02-13T01:29:25.347Z,0
2017-02-13T01:30:24.990Z,0
2017-02-13T01:31:25.427Z,0
2017-02-13T01:32:25.127Z,0
2017-02-13T01:33:25.554Z,0
2017-02-13T01:34:25.620Z,0
2017-02-13T01:35:24.883Z,0
2017-02-13T01:36:25.726Z,0
2017-02-13T01:37:25.792Z,0
2017-02-13T01:38:25.844Z,0
2017-02-13T01:39:25.884Z,0
2017-02-13T01:40:25.928Z,0
2017-02-13T01:41:25.995Z,0
2017-02-13T01:42:26.045Z,0
2017-02-13T01:43:26.134Z,0
2017-02-13T01:44:26.181Z,0
2017-02-13T01:45:26.204Z,0
2017-02-13T01:46:26.243Z,0
2017-02-13T01:47:25.951Z,0
2017-02-13T01:48:26.397Z,0
2017-02-13T01:49:26.050Z,0
2017-02-13T01:50:26.109Z,0
2017-02-13T01:51:26.522Z,0
2017-02-13T01:52:26.610Z,0
2017-02-13T01:53:26.265Z,0
2017-02-13T01:54:26.712Z,0
2017-02-13T01:55:26.747Z,0
2017-02-13T01:56:26.480Z,0
2017-02-13T01:57:26.879Z,0
2017-02-13T01:58:26.929Z,0
2017-02-13T01:59:26.989Z,0
2017-02-13T02:00:27.015Z,0
2017-02-13T02:01:27.106Z,0
2017-02-13T02:02:27.131Z,0
2017-02-13T02:03:27.189Z,0
2017-02-13T02:04:27.295Z,0
2017-02-13T02:05:27.330Z,0
2017-02-13T02:06:27.399Z,0
2017-02-13T02:07:27.400Z,0
2017-02-13T02:08:27.456Z,0
2017-02-13T02:09:27.517Z,0
2017-02-13T02:10:27.613Z,0
2017-02-13T02:11:27.632Z,0
2017-02-13T02:12:27.694Z,0
2017-02-13T02:13:27.748Z,0
2017-02-13T02:14:27.799Z,0
2017-02-13T02:15:27.491Z,0
2017-02-13T02:16:27.940Z,0
2017-02-13T02:17:27.990Z,0
2017-02-13T02:18:28.044Z,0
2017-02-13T02:19:28.099Z,0
2017-02-13T02:20:28.157Z,0
2017-02-13T02:21:28.198Z,0
2017-02-13T02:22:28.271Z,0
2017-02-13T02:23:27.913Z,0
2017-02-13T02:24:28.386Z,0
2017-02-13T02:25:28.422Z,0
2017-02-13T02:26:28.494Z,0
2017-02-13T02:27:28.522Z,0
2017-02-13T02:28:28.596Z,0
2017-02-13T02:29:28.616Z,0
2017-02-13T02:30:28.689Z,0
2017-02-13T02:31:28.751Z,0
2017-02-13T02:32:28.784Z,0
2017-02-13T02:33:28.889Z,0
2017-02-13T02:34:28.924Z,0
2017-02-13T02:35:28.598Z,0
2017-02-13T02:36:28.999Z,0
2017-02-13T02:37:29.056Z,0
2017-02-13T02:38:29.155Z,0
2017-02-13T02:39:29.190Z,0
2017-02-13T02:40:29.247Z,0
2017-02-13T02:41:28.911Z,0
2017-02-13T02:42:29.348Z,0
2017-02-13T02:43:29.406Z,0
2017-02-13T02:44:29.458Z,0
2017-02-13T02:45:29.519Z,0
2017-02-13T02:46:29.589Z,0
2017-02-13T02:47:29.635Z,0
2017-02-13T02:48:29.691Z,0
2017-02-13T02:49:29.755Z,0
2017-02-13T02:50:29.799Z,0
2017-02-13T02:51:29.444Z,0
2017-02-13T02:52:29.925Z,0
2017-02-13T02:53:29.579Z,0
2017-02-13T02:54:30.007Z,0
2017-02-13T02:55:30.080Z,0
2017-02-13T02:56:30.124Z,0
2017-02-13T02:57:30.178Z,0
2017-02-13T02:58:30.239Z,0
2017-02-13T02:59:30.289Z,0
2017-02-13T03:00:30.361Z,0
2017-02-13T03:01:30.387Z,0
2017-02-13T03:02:30.427Z,0
2017-02-13T03:03:30.120Z,0
2017-02-13T03:04:30.570Z,0
2017-02-13T03:05:30.611Z,0
2017-02-13T03:06:30.683Z,0
2017-02-13T03:07:30.726Z,0
2017-02-13T03:08:30.757Z,0
2017-02-13T03:09:30.843Z,0
2017-02-13T03:10:30.888Z,0
2017-02-13T03:11:30.958Z,0
2017-02-13T03:12:30.999Z,0
2017-02-13T03:13:31.057Z,0
2017-02-13T03:14:30.698Z,0
2017-02-13T03:15:31.157Z,0
2017-02-13T03:16:31.242Z,0
2017-02-13T03:17:31.268Z,0
2017-02-13T03:18:31.348Z,0
2017-02-13T03:19:31.373Z,0
2017-02-13T03:20:31.463Z,0
2017-02-13T03:21:31.510Z,0
2017-02-13T03:22:31.541Z,0
2017-02-13T03:23:31.599Z,0
2017-02-13T03:24:31.638Z,0
2017-02-13T03:25:31.711Z,0
2017-02-13T03:26:31.781Z,0
2017-02-13T03:27:31.839Z,0
2017-02-13T03:28:31.873Z,0
2017-02-13T03:29:31.931Z,0
2017-02-13T03:30:31.992Z,0
2017-02-13T03:31:32.055Z,0
2017-02-13T03:32:32.132Z,0
2017-02-13T03:33:32.144Z,0
2017-02-13T03:34:32.192Z,0
2017-02-13T03:35:32.275Z,0
2017-02-13T03:36:32.308Z,0
2017-02-13T03:37:32.360Z,0
2017-02-13T03:38:32.432Z,0
2017-02-13T03:39:32.467Z,0
2017-02-13T03:40:32.555Z,0
2017-02-13T03:41:32.570Z,0
2017-02-13T03:42:32.632Z,0
2017-02-13T03:43:32.693Z,0
2017-02-13T03:44:32.771Z,0
2017-02-13T03:45:32.817Z,0
2017-02-13T03:46:32.884Z,0
2017-02-13T03:47:32.921Z,0
2017-02-13T03:48:33.007Z,0
2017-02-13T03:49:33.029Z,0
2017-02-13T03:50:33.090Z,0
2017-02-13T03:51:32.759Z,0
2017-02-13T03:52:33.178Z,0
2017-02-13T03:53:33.215Z,0
2017-02-13T03:54:33.337Z,0
2017-02-13T03:55:33.346Z,0
2017-02-13T03:56:33.409Z,0
2017-02-13T03:57:33.473Z,0
2017-02-13T03:58:33.536Z,0
2017-02-13T03:59:33.569Z,0
2017-02-13T04:00:33.619Z,0
2017-02-13T04:01:33.665Z,0
2017-02-13T04:02:33.365Z,0
2017-02-13T04:03:33.763Z,0
2017-02-13T04:04:33.462Z,0
2017-02-13T04:05:33.899Z,0
2017-02-13T04:06:33.944Z,0
2017-02-13T04:07:33.989Z,0
2017-02-13T04:08:34.086Z,0
2017-02-13T04:09:34.141Z,0
2017-02-13T04:10:34.163Z,0
2017-02-13T04:11:34.232Z,0
2017-02-13T04:12:34.280Z,0
2017-02-13T04:13:34.346Z,0
2017-02-13T04:14:34.390Z,0
2017-02-13T04:15:34.460Z,0
2017-02-13T04:16:34.499Z,0
2017-02-13T04:17:34.576Z,0
2017-02-13T04:18:34.612Z,0
2017-02-13T04:19:34.670Z,0
2017-02-13T04:20:34.746Z,0
2017-02-13T04:21:34.797Z,0
2017-02-13T04:22:34.819Z,0
2017-02-13T04:23:34.916Z,0
2017-02-13T04:24:34.930Z,0
2017-02-13T04:25:35.023Z,0
2017-02-13T04:26:35.022Z,0
2017-02-13T04:27:35.086Z,0
2017-02-13T04:28:35.171Z,0
2017-02-13T04:29:35.241Z,0
2017-02-13T04:30:35.264Z,0
2017-02-13T04:31:35.341Z,0
2017-02-13T04:32:35.366Z,0
2017-02-13T04:33:35.437Z,0
2017-02-13T04:34:35.480Z,0
2017-02-13T04:35:35.538Z,0
2017-02-13T04:36:35.610Z,0
2017-02-13T04:37:35.632Z,0
2017-02-13T04:38:35.699Z,0
2017-02-13T04:39:35.751Z,0
2017-02-13T04:40:35.813Z,0
2017-02-13T04:41:35.863Z,0
2017-02-13T04:42:35.915Z,0
2017-02-13T04:43:35.973Z,0
2017-02-13T04:44:36.036Z,0
2017-02-13T04:45:36.075Z,0
2017-02-13T04:46:36.159Z,0
2017-02-13T04:47:36.215Z,0
2017-02-13T04:48:36.263Z,0
2017-02-13T04:49:35.942Z,0
2017-02-13T04:50:36.371Z,0
2017-02-13T04:51:36.048Z,0
2017-02-13T04:52:36.107Z,0
2017-02-13T04:53:36.516Z,0
2017-02-13T04:54:36.560Z,0
2017-02-13T04:55:36.655Z,0
2017-02-13T04:56:36.313Z,0
2017-02-13T04:57:36.346Z,0
2017-02-13T04:58:36.810Z,0
2017-02-13T04:59:36.457Z,0
2017-02-13T05:00:36.497Z,0
2017-02-13T05:01:36.971Z,0
2017-02-13T05:02:36.993Z,0
2017-02-13T05:03:37.060Z,0
2017-02-13T05:04:37.115Z,0
2017-02-13T05:05:36.795Z,0
2017-02-13T05:06:36.847Z,0
2017-02-13T05:07:36.885Z,0
2017-02-13T05:08:36.956Z,0
2017-02-13T05:09:37.042Z,0
2017-02-13T05:10:37.448Z,0
2017-02-13T05:11:37.118Z,0
2017-02-13T05:12:37.156Z,0
2017-02-13T05:13:37.218Z,0
2017-02-13T05:14:37.644Z,0
2017-02-13T05:15:37.697Z,0
2017-02-13T05:16:37.830Z,0
2017-02-13T05:17:37.851Z,0
2017-02-13T05:18:37.890Z,0
2017-02-13T05:19:37.557Z,0
2017-02-13T05:20:38.020Z,0
2017-02-13T05:21:38.065Z,0
2017-02-13T05:22:38.104Z,0
2017-02-13T05:23:37.763Z,0
2017-02-13T05:24:38.199Z,0
2017-02-13T05:25:37.888Z,0
2017-02-13T05:26:38.334Z,0
2017-02-13T05:27:38.360Z,0
2017-02-13T05:28:38.428Z,0
2017-02-13T05:29:38.497Z,0
2017-02-13T05:30:38.527Z,0
2017-02-13T05:31:38.610Z,0
2017-02-13T05:32:38.289Z,0
2017-02-13T05:33:38.325Z,0
2017-02-13T05:34:38.791Z,0
2017-02-13T05:35:38.425Z,0
2017-02-13T05:36:38.483Z,0
2017-02-13T05:37:38.555Z,0
2017-02-13T05:38:39.000Z,0
2017-02-13T05:39:38.638Z,0
2017-02-13T05:40:39.088Z,0
2017-02-13T05:41:38.764Z,0
2017-02-13T05:42:39.224Z,0
2017-02-13T05:43:38.875Z,0
2017-02-13T05:44:38.910Z,0
2017-02-13T05:45:39.358Z,0
2017-02-13T05:46:39.420Z,0
2017-02-13T05:47:39.063Z,0
2017-02-13T05:48:39.525Z,0
2017-02-13T05:49:39.192Z,0
2017-02-13T05:50:39.652Z,0
2017-02-13T05:51:39.682Z,0
2017-02-13T05:52:39.377Z,0
2017-02-13T05:53:39.796Z,0
2017-02-13T05:54:39.847Z,0
2017-02-13T05:55:39.881Z,0
2017-02-13T05:56:39.973Z,0
2017-02-13T05:57:39.639Z,0
2017-02-13T05:58:39.709Z,0
2017-02-13T05:59:40.125Z,0
2017-02-13T06:00:40.200Z,0
2017-02-13T06:01:40.243Z,0
2017-02-13T06:02:40.286Z,0
2017-02-13T06:03:40.325Z,0
2017-02-13T06:04:40.429Z,0
2017-02-13T06:05:40.424Z,4
2017-02-13T06:06:40.526Z,4
2017-02-13T06:07:40.558Z,4
2017-02-13T06:08:40.607Z,0
2017-02-13T06:09:40.288Z,4
2017-02-13T06:10:40.703Z,4
2017-02-13T06:11:40.774Z,4
2017-02-13T06:12:40.817Z,8
2017-02-13T06:13:40.865Z,4
2017-02-13T06:14:40.923Z,8
2017-02-13T06:15:41.009Z,8
2017-02-13T06:16:41.053Z,8
2017-02-13T06:17:41.101Z,8
2017-02-13T06:18:41.181Z,12
2017-02-13T06:19:41.246Z,12
2017-02-13T06:20:41.247Z,12
2017-02-13T06:21:41.345Z,12
2017-02-13T06:22:41.390Z,16
2017-02-13T06:23:41.425Z,16
2017-02-13T06:24:41.499Z,16
2017-02-13T06:25:41.558Z,24
2017-02-13T06:26:41.614Z,24
2017-02-13T06:27:41.640Z,24
2017-02-13T06:28:41.680Z,28
2017-02-13T06:29:41.788Z,32
2017-02-13T06:30:41.842Z,32
2017-02-13T06:31:41.874Z,36
2017-02-13T06:32:41.927Z,44
2017-02-13T06:33:41.960Z,48
2017-02-13T06:34:42.022Z,52
2017-02-13T06:35:42.094Z,56
2017-02-13T06:36:42.164Z,64
2017-02-13T06:37:42.190Z,68
2017-02-13T06:38:41.859Z,76
2017-02-13T06:39:42.296Z,84
2017-02-13T06:40:42.375Z,92
2017-02-13T06:41:42.420Z,96
2017-02-13T06:42:42.488Z,104
2017-02-13T06:43:42.524Z,116
2017-02-13T06:44:42.586Z,120
2017-02-13T06:45:42.659Z,132
2017-02-13T06:46:42.689Z,144
2017-02-13T06:47:42.755Z,152
2017-02-13T06:48:42.790Z,164
2017-02-13T06:49:42.452Z,180
2017-02-13T06:50:42.890Z,192
2017-02-13T06:51:42.935Z,204
2017-02-13T06:52:43.037Z,220
2017-02-13T06:53:43.041Z,232
2017-02-13T06:54:43.114Z,248
2017-02-13T06:55:43.160Z,264
2017-02-13T06:56:43.227Z,276
2017-02-13T06:57:43.288Z,284
2017-02-13T06:58:43.324Z,308
2017-02-13T06:59:43.415Z,324
2017-02-13T07:00:43.458Z,344
2017-02-13T07:01:43.509Z,364
2017-02-13T07:02:43.550Z,384
2017-02-13T07:03:43.236Z,400
2017-02-13T07:04:43.682Z,420
2017-02-13T07:05:43.715Z,436
2017-02-13T07:06:43.786Z,456
2017-02-13T07:07:43.822Z,472
2017-02-13T07:08:43.883Z,492
2017-02-13T07:09:43.553Z,508
2017-02-13T07:10:43.609Z,524
2017-02-13T07:11:44.030Z,540
2017-02-13T07:12:44.111Z,560
2017-02-13T07:13:44.134Z,576
2017-02-13T07:14:44.231Z,592
2017-02-13T07:15:44.278Z,608
2017-02-13T07:16:44.336Z,628
2017-02-13T07:17:44.370Z,648
2017-02-13T07:18:44.407Z,664
2017-02-13T07:19:44.475Z,684
2017-02-13T07:20:44.531Z,708
2017-02-13T07:21:44.608Z,724
2017-02-13T07:22:44.675Z,744
2017-02-13T07:23:44.676Z,760
2017-02-13T07:24:44.759Z,776
2017-02-13T07:25:44.828Z,792
2017-02-13T07:26:44.844Z,808
2017-02-13T07:27:44.534Z,824
2017-02-13T07:28:44.960Z,836
2017-02-13T07:29:44.637Z,852
2017-02-13T07:30:45.086Z,868
2017-02-13T07:31:45.137Z,888
2017-02-13T07:32:45.203Z,908
2017-02-13T07:33:45.273Z,920
2017-02-13T07:34:44.961Z,932
2017-02-13T07:35:45.348Z,948
2017-02-13T07:36:45.408Z,964
2017-02-13T07:37:45.464Z,980
2017-02-13T07:38:45.512Z,996
2017-02-13T07:39:45.184Z,1004
2017-02-13T07:40:45.632Z,1016
2017-02-13T07:41:45.714Z,1028
2017-02-13T07:42:45.732Z,1040
2017-02-13T07:43:45.785Z,1048
2017-02-13T07:44:45.868Z,1060
2017-02-13T07:45:48.676Z,1072
2017-02-13T07:46:45.944Z,1084
2017-02-13T07:47:46.028Z,1100
2017-02-13T07:48:46.096Z,1112
2017-02-13T07:49:46.131Z,1124
2017-02-13T07:50:46.191Z,1132
2017-02-13T07:51:46.251Z,1140
2017-02-13T07:52:46.304Z,1152
2017-02-13T07:53:45.958Z,1164
2017-02-13T07:54:46.404Z,1172
2017-02-13T07:55:46.455Z,1176
2017-02-13T07:56:46.486Z,1192
2017-02-13T07:57:46.579Z,1204
2017-02-13T07:58:46.597Z,1216
2017-02-13T07:59:46.679Z,1228
2017-02-13T08:00:46.730Z,1232
2017-02-13T08:01:46.814Z,1244
2017-02-13T08:02:46.815Z,1252
2017-02-13T08:03:46.909Z,1256
2017-02-13T08:04:46.949Z,1268
2017-02-13T08:05:47.021Z,1276
2017-02-13T08:06:47.100Z,1284
2017-02-13T08:07:47.118Z,1296
2017-02-13T08:08:47.182Z,1304
2017-02-13T08:09:46.818Z,1308
2017-02-13T08:10:47.287Z,1320
2017-02-13T08:11:47.316Z,1328
2017-02-13T08:12:47.403Z,1340
2017-02-13T08:13:47.058Z,1348
2017-02-13T08:14:47.485Z,1360
2017-02-13T08:15:47.568Z,1372
2017-02-13T08:16:47.643Z,1380
2017-02-13T08:17:47.675Z,1388
2017-02-13T08:18:47.732Z,1396
2017-02-13T08:19:47.768Z,1404
2017-02-13T08:20:47.849Z,1412
2017-02-13T08:21:47.878Z,1420
2017-02-13T08:22:47.959Z,1428
2017-02-13T08:23:47.998Z,1440
2017-02-13T08:24:48.039Z,1448
2017-02-13T08:25:48.118Z,1452
2017-02-13T08:26:48.154Z,1460
2017-02-13T08:27:48.232Z,1464
2017-02-13T08:28:48.270Z,1472
2017-02-13T08:29:48.328Z,1484
2017-02-13T08:30:48.390Z,1492
2017-02-13T08:31:48.440Z,1504
2017-02-13T08:32:48.489Z,1524
2017-02-13T08:33:48.528Z,1532
2017-02-13T08:34:48.629Z,1548
2017-02-13T08:35:48.673Z,1560
2017-02-13T08:36:48.742Z,1576
2017-02-13T08:37:48.374Z,1588
2017-02-13T08:38:48.807Z,1600
2017-02-13T08:39:48.889Z,1568
2017-02-13T08:40:48.930Z,1568
2017-02-13T08:41:49.001Z,1644
2017-02-13T08:42:49.045Z,1656
2017-02-13T08:43:49.105Z,1668
2017-02-13T08:44:49.170Z,1684
2017-02-13T08:45:48.815Z,1696
2017-02-13T08:46:49.252Z,1704
2017-02-13T08:47:49.299Z,1712
2017-02-13T08:48:49.347Z,1728
2017-02-13T08:49:49.430Z,1744
2017-02-13T08:50:49.471Z,1748
2017-02-13T08:51:49.154Z,1760
2017-02-13T08:52:49.599Z,1772
2017-02-13T08:53:49.636Z,1780
2017-02-13T08:54:49.683Z,1784
2017-02-13T08:55:49.763Z,1788
2017-02-13T08:56:49.805Z,1796
2017-02-13T08:57:49.855Z,1804
2017-02-13T08:58:49.914Z,1816
2017-02-13T08:59:49.971Z,1824
2017-02-13T09:00:49.650Z,1832
2017-02-13T09:01:50.104Z,1840
2017-02-13T09:02:50.157Z,1848
2017-02-13T09:03:49.806Z,1860
2017-02-13T09:04:50.242Z,1868
2017-02-13T09:05:50.271Z,1876
2017-02-13T09:06:50.342Z,1884
2017-02-13T09:07:50.410Z,1888
2017-02-13T09:08:50.496Z,1892
2017-02-13T09:09:50.529Z,1896
2017-02-13T09:10:50.599Z,1900
2017-02-13T09:11:50.619Z,1904
2017-02-13T09:12:50.705Z,1908
2017-02-13T09:13:50.751Z,1920
2017-02-13T09:14:50.792Z,1928
2017-02-13T09:15:50.433Z,1932
2017-02-13T09:16:50.878Z,1944
2017-02-13T09:17:50.961Z,1956
2017-02-13T09:18:50.981Z,1964
2017-02-13T09:19:51.054Z,1976
2017-02-13T09:20:51.110Z,1988
2017-02-13T09:21:50.785Z,2004
2017-02-13T09:22:51.235Z,2012
2017-02-13T09:23:51.299Z,2028
2017-02-13T09:24:51.340Z,2040
2017-02-13T09:25:51.371Z,2048
2017-02-13T09:26:51.440Z,2060
2017-02-13T09:27:51.518Z,2072
2017-02-13T09:28:51.576Z,2088
2017-02-13T09:29:51.231Z,2104
2017-02-13T09:30:51.680Z,2120
2017-02-13T09:31:51.327Z,2136
2017-02-13T09:32:51.810Z,2156
2017-02-13T09:33:51.452Z,2172
2017-02-13T09:34:51.898Z,2192
2017-02-13T09:35:51.977Z,2212
2017-02-13T09:36:51.622Z,2228
2017-02-13T09:37:52.054Z,2244
2017-02-13T09:38:51.708Z,2256
2017-02-13T09:39:52.146Z,2272
2017-02-13T09:40:52.221Z,2288
2017-02-13T09:41:51.913Z,2308
2017-02-13T09:42:51.950Z,2332
2017-02-13T09:43:51.986Z,2352
2017-02-13T09:44:52.419Z,2376
2017-02-13T09:45:52.517Z,2396
2017-02-13T09:46:52.560Z,2412
2017-02-13T09:47:52.628Z,2428
2017-02-13T09:48:52.677Z,2448
2017-02-13T09:49:52.715Z,2472
2017-02-13T09:50:52.776Z,2492
2017-02-13T09:51:52.854Z,2512
2017-02-13T09:52:52.906Z,2532
2017-02-13T09:53:52.963Z,2556
2017-02-13T09:54:53.034Z,2580
2017-02-13T09:55:52.690Z,2600
2017-02-13T09:56:53.117Z,2628
2017-02-13T09:57:53.154Z,2648
2017-02-13T09:58:53.221Z,2668
2017-02-13T09:59:53.286Z,2696
2017-02-13T10:00:53.336Z,2708
2017-02-13T10:01:53.394Z,2720
2017-02-13T10:02:53.443Z,2732
2017-02-13T10:03:53.488Z,2748
2017-02-13T10:04:53.562Z,2764
2017-02-13T10:05:53.621Z,2788
2017-02-13T10:06:53.696Z,2816
2017-02-13T10:07:53.744Z,2864
2017-02-13T10:08:53.812Z,2932
2017-02-13T10:09:53.851Z,3176
2017-02-13T10:10:53.921Z,4148
2017-02-13T10:11:53.570Z,4804
2017-02-13T10:12:54.010Z,6068
2017-02-13T10:13:54.084Z,7124
2017-02-13T10:14:54.125Z,8476
2017-02-13T10:15:54.196Z,12668
2017-02-13T10:16:54.237Z,17532
2017-02-13T10:17:54.321Z,15224
2017-02-13T10:18:54.386Z,14336
2017-02-13T10:19:54.411Z,19776
2017-02-13T10:20:54.477Z,28896
2017-02-13T10:21:54.532Z,25504
2017-02-13T10:22:54.207Z,14988
2017-02-13T10:23:53.890Z,12696
2017-02-13T10:24:54.720Z,12412
2017-02-13T10:25:54.781Z,11748
2017-02-13T10:26:54.857Z,13680
2017-02-13T10:27:54.890Z,19552
2017-02-13T10:28:54.919Z,22880
2017-02-13T10:29:54.987Z,19104
2017-02-13T10:30:55.060Z,12508
2017-02-13T10:31:55.104Z,12032
2017-02-13T10:32:55.170Z,22720
2017-02-13T10:33:54.847Z,35072
2017-02-13T10:34:55.299Z,25216
2017-02-13T10:35:55.355Z,12700
2017-02-13T10:36:55.399Z,11904
2017-02-13T10:37:55.462Z,11692
2017-02-13T10:38:55.503Z,10728
2017-02-13T10:39:55.568Z,8576
2017-02-13T10:40:55.639Z,7808
2017-02-13T10:41:55.668Z,7608
2017-02-13T10:42:55.733Z,8468
2017-02-13T10:43:55.815Z,9508
2017-02-13T10:44:55.876Z,9488
2017-02-13T10:45:55.902Z,10116
2017-02-13T10:46:55.979Z,11216
2017-02-13T10:47:56.054Z,11144
2017-02-13T10:48:56.096Z,10956
2017-02-13T10:49:55.767Z,12156
2017-02-13T10:50:56.229Z,13236
2017-02-13T10:51:56.270Z,11468
2017-02-13T10:52:56.318Z,9016
2017-02-13T10:53:56.388Z,8332
2017-02-13T10:54:56.461Z,8356
2017-02-13T10:55:56.493Z,8252
2017-02-13T10:56:56.534Z,8136
2017-02-13T10:57:56.616Z,8760
2017-02-13T10:58:56.290Z,8228
2017-02-13T10:59:56.712Z,8120
2017-02-13T11:00:56.809Z,8548
2017-02-13T11:01:56.884Z,8756
2017-02-13T11:02:56.887Z,10020
2017-02-13T11:03:56.974Z,10840
2017-02-13T11:04:57.057Z,10928
2017-02-13T11:05:57.080Z,10328
2017-02-13T11:06:57.154Z,10628
2017-02-13T11:07:57.216Z,13184
2017-02-13T11:08:56.869Z,14504
2017-02-13T11:09:57.301Z,10024
2017-02-13T11:10:57.372Z,6548
2017-02-13T11:11:57.462Z,9612
2017-02-13T11:12:57.519Z,11800
2017-02-13T11:13:57.577Z,15600
2017-02-13T11:14:57.611Z,21632
2017-02-13T11:15:57.661Z,28480
2017-02-13T11:16:57.728Z,31392
2017-02-13T11:17:57.391Z,30560
2017-02-13T11:18:57.459Z,30016
2017-02-13T11:19:57.907Z,29984
2017-02-13T11:20:57.972Z,30720
2017-02-13T11:21:58.041Z,30912
2017-02-13T11:22:58.109Z,33088
2017-02-13T11:23:58.154Z,35520
2017-02-13T11:24:57.810Z,36736
2017-02-13T11:25:57.884Z,36576
2017-02-13T11:26:58.315Z,35520
2017-02-13T11:27:58.348Z,35584
2017-02-13T11:28:58.433Z,33760
2017-02-13T11:29:58.513Z,31424
2017-02-13T11:30:58.570Z,32896
2017-02-13T11:31:58.616Z,36352
2017-02-13T11:32:58.731Z,34688
2017-02-13T11:33:58.747Z,33728
2017-02-13T11:34:58.790Z,36000
2017-02-13T11:35:58.843Z,37632
2017-02-13T11:36:58.885Z,37312
2017-02-13T11:37:58.959Z,36640
2017-02-13T11:38:59.023Z,36576
2017-02-13T11:39:59.083Z,37504
2017-02-13T11:40:59.159Z,38816
2017-02-13T11:41:59.236Z,36736
2017-02-13T11:42:59.273Z,36000
2017-02-13T11:43:59.323Z,36960
2017-02-13T11:44:59.393Z,36224
2017-02-13T11:45:59.456Z,34592
2017-02-13T11:46:59.495Z,34144
2017-02-13T11:47:59.556Z,27968
2017-02-13T11:48:59.605Z,27424
2017-02-13T11:49:59.643Z,17792
2017-02-13T11:50:59.751Z,4668
2017-02-13T11:51:59.820Z,3504
2017-02-13T11:52:59.453Z,3280
2017-02-13T11:53:59.907Z,3144
2017-02-13T11:54:59.958Z,3032
2017-02-13T11:56:00.015Z,2948
2017-02-13T11:57:00.098Z,2892
2017-02-13T11:58:00.151Z,2844
2017-02-13T11:59:00.212Z,2804
2017-02-13T12:00:00.259Z,2784
2017-02-13T12:01:00.335Z,2760
2017-02-13T12:02:00.367Z,2740
2017-02-13T12:03:00.461Z,2716
2017-02-13T12:04:00.500Z,2696
2017-02-13T12:05:00.552Z,2676
2017-02-13T12:06:00.610Z,2656
2017-02-13T12:07:00.660Z,2636
2017-02-13T12:08:00.753Z,2620
2017-02-13T12:09:00.780Z,2600
2017-02-13T12:10:00.819Z,2584
2017-02-13T12:11:00.888Z,2564
2017-02-13T12:12:00.967Z,2552
2017-02-13T12:13:01.020Z,2540
2017-02-13T12:14:01.067Z,2524
2017-02-13T12:15:01.153Z,2516
2017-02-13T12:16:01.159Z,2504
2017-02-13T12:17:01.234Z,2496
2017-02-13T12:18:01.320Z,2480
2017-02-13T12:19:01.360Z,2468
2017-02-13T12:20:01.385Z,2456
2017-02-13T12:21:01.464Z,2448
2017-02-13T12:22:01.517Z,2432
2017-02-13T12:23:01.598Z,2424
2017-02-13T12:24:01.627Z,2412
2017-02-13T12:25:01.704Z,2400
2017-02-13T12:26:01.756Z,2392
2017-02-13T12:27:01.799Z,2380
2017-02-13T12:28:01.883Z,2372
2017-02-13T12:29:01.939Z,2368
2017-02-13T12:30:01.994Z,2364
2017-02-13T12:31:02.039Z,2352
2017-02-13T12:32:02.117Z,2348
2017-02-13T12:33:02.165Z,2336
2017-02-13T12:34:02.205Z,2328
2017-02-13T12:35:02.267Z,2324
2017-02-13T12:36:02.314Z,2312
2017-02-13T12:37:02.400Z,2308
2017-02-13T12:38:02.439Z,2300
2017-02-13T12:39:02.483Z,2296
2017-02-13T12:40:02.574Z,2288
2017-02-13T12:41:02.596Z,2280
2017-02-13T12:42:02.667Z,2268
2017-02-13T12:43:02.719Z,2252
2017-02-13T12:45:36.334Z,2228
2017-02-13T12:45:46.381Z,2228
2017-02-13T12:46:46.392Z,2220
2017-02-13T12:47:46.464Z,2216
2017-02-13T12:48:46.536Z,2212
2017-02-13T12:49:46.206Z,2208
2017-02-13T12:50:46.608Z,2208
2017-02-13T12:51:46.677Z,2200
2017-02-13T12:52:46.751Z,2188
2017-02-13T12:53:46.819Z,2180
2017-02-13T12:54:46.871Z,2168
2017-02-13T12:55:46.939Z,2160
2017-02-13T12:56:46.986Z,2152
2017-02-13T12:57:47.038Z,2144
2017-02-13T12:58:47.073Z,2136
2017-02-13T12:59:47.133Z,2128
2017-02-13T13:00:47.187Z,2124
2017-02-13T13:01:47.239Z,2112
2017-02-13T13:02:47.343Z,2104
2017-02-13T13:03:47.393Z,2096
2017-02-13T13:04:47.426Z,2092
2017-02-13T13:05:47.482Z,2080
2017-02-13T13:06:47.562Z,2068
2017-02-13T13:07:47.595Z,2064
2017-02-13T13:08:47.649Z,2056
2017-02-13T13:09:47.746Z,2048
2017-02-13T13:10:47.762Z,2036
2017-02-13T13:11:47.838Z,2028
2017-02-13T13:12:47.890Z,2024
2017-02-13T13:13:47.952Z,2016
2017-02-13T13:14:47.968Z,2012
2017-02-13T13:15:48.041Z,1996
2017-02-13T13:16:48.127Z,1984
2017-02-13T13:17:48.184Z,1972
2017-02-13T13:18:48.218Z,1960
2017-02-13T13:19:48.265Z,1948
2017-02-13T13:20:48.347Z,1940
2017-02-13T13:21:48.393Z,1928
2017-02-13T13:22:48.458Z,1924
2017-02-13T13:23:48.499Z,1908
2017-02-13T13:24:48.181Z,1896
2017-02-13T13:25:48.618Z,1880
2017-02-13T13:26:48.672Z,1872
2017-02-13T13:27:48.735Z,1856
2017-02-13T13:28:48.813Z,1848
2017-02-13T13:29:48.822Z,1836
2017-02-13T13:30:48.899Z,1824
2017-02-13T13:31:48.971Z,1816
2017-02-13T13:32:49.019Z,1808
2017-02-13T13:33:49.064Z,1800
2017-02-13T13:34:49.145Z,1788
2017-02-13T13:35:49.187Z,1780
2017-02-13T13:36:49.259Z,1768
2017-02-13T13:37:49.307Z,1756
2017-02-13T13:38:49.386Z,1744
2017-02-13T13:39:49.389Z,1736
2017-02-13T13:40:49.445Z,1724
2017-02-13T13:41:49.527Z,1720
2017-02-13T13:42:49.570Z,1708
2017-02-13T13:43:49.632Z,1700
2017-02-13T13:44:49.694Z,1692
2017-02-13T13:45:49.730Z,1684
2017-02-13T13:46:49.820Z,1672
2017-02-13T13:47:49.842Z,1664
2017-02-13T13:48:49.935Z,1656
2017-02-13T13:49:49.969Z,1652
2017-02-13T13:50:50.058Z,1644
2017-02-13T13:51:50.088Z,1636
2017-02-13T13:52:50.161Z,1632
2017-02-13T13:53:50.219Z,1620
2017-02-13T13:54:50.241Z,1620
2017-02-13T13:55:50.320Z,1608
2017-02-13T13:56:50.409Z,1604
2017-02-13T13:57:50.444Z,1604
2017-02-13T13:58:50.488Z,1596